Time;durP1;ratioP1;P1;durP2;ratioP2;P2;SDS_P1;SDS_P2;PMS_P1;PMS_P2;Temp;Humidity;BMP_temperature;BMP_pressure;BME280_temperature;BME280_humidity;BME280_pressure;Samples;Min_cycle;Max_cycle;Signal;HPM_P1;HPM_P2
2022/04/27 00:03:30;;;;;;;36.13;17.95;;;;;;;3.82;88.37;99605.06;8500500;27;20390;-74
2022/04/27 00:07:31;;;;;;;30.10;17.02;;;;;;;3.78;88.23;99606.66;8443758;27;20047;-73
2022/04/27 00:11:32;;;;;;;29.67;16.17;;;;;;;3.74;88.55;99605.53;8502449;27;20050;-74
2022/04/27 00:15:33;;;;;;;30.52;15.70;;;;;;;3.73;88.60;99601.25;8458144;27;20051;-74
2022/04/27 00:19:34;;;;;;;29.13;15.25;;;;;;;3.70;88.83;99604.41;8494571;27;20051;-74
2022/04/27 00:23:35;;;;;;;26.33;14.95;;;;;;;3.67;88.72;99602.25;8494368;27;20042;-73
2022/04/27 00:27:36;;;;;;;25.30;15.02;;;;;;;3.64;88.62;99618.81;8509170;27;20034;-74
2022/04/27 00:31:37;;;;;;;28.63;15.57;;;;;;;3.61;88.71;99613.13;8520393;27;20122;-73
2022/04/27 00:35:38;;;;;;;32.58;16.02;;;;;;;3.56;88.83;99605.88;8509705;27;20048;-73
2022/04/27 00:39:39;;;;;;;36.97;16.88;;;;;;;3.54;89.04;99613.34;8491414;27;20129;-73
2022/04/27 00:43:43;;;;;;;37.40;18.55;;;;;;;3.53;88.98;99617.06;8460577;27;20046;-74
2022/04/27 00:47:44;;;;;;;42.50;20.27;;;;;;;3.54;88.98;99613.34;8519262;27;20480;-73
2022/04/27 00:51:45;;;;;;;35.88;18.88;;;;;;;3.56;88.84;99611.22;8517986;27;20042;-73
2022/04/27 00:55:49;;;;;;;30.52;16.13;;;;;;;3.57;88.82;99612.84;8513787;27;20039;-74
2022/04/27 00:59:50;;;;;;;29.40;16.30;;;;;;;3.61;88.64;99611.28;8440412;27;20051;-74
2022/04/27 01:03:51;;;;;;;27.05;16.17;;;;;;;3.65;88.55;99620.38;8493320;27;20485;-73
2022/04/27 01:07:53;;;;;;;31.80;16.05;;;;;;;3.66;88.62;99616.66;8521531;27;20046;-74
2022/04/27 01:11:54;;;;;;;24.45;13.48;;;;;;;3.70;88.59;99617.78;8526525;27;20405;-74
2022/04/27 01:15:55;;;;;;;22.42;13.98;;;;;;;3.70;88.48;99628.44;8490282;27;20051;-74
2022/04/27 01:19:56;;;;;;;25.55;14.23;;;;;;;3.70;88.62;99628.44;8490295;27;20078;-74
2022/04/27 01:23:57;;;;;;;24.98;14.13;;;;;;;3.66;88.61;99632.69;8523318;27;20047;-74
2022/04/27 01:27:58;;;;;;;22.05;12.10;;;;;;;3.63;88.82;99627.06;8526387;27;20506;-75
2022/04/27 01:32:01;;;;;;;22.98;12.82;;;;;;;3.58;89.12;99630.47;8504374;27;20047;-74
2022/04/27 01:36:06;;;;;;;18.50;11.30;;;;;;;3.53;89.29;99622.41;8501395;27;20039;-74
2022/04/27 01:40:08;;;;;;;19.83;11.75;;;;;;;3.53;89.18;99633.09;8493057;27;20051;-73
2022/04/27 01:44:08;;;;;;;19.75;11.32;;;;;;;3.52;89.23;99636.81;8456616;28;20138;-74
2022/04/27 01:48:11;;;;;;;20.13;11.05;;;;;;;3.52;89.23;99636.81;8501821;27;20043;-73
2022/04/27 01:56:32;;;;;;;25.23;13.70;;;;;;;3.53;89.05;99638.44;8517351;27;20047;-74
2022/04/27 02:00:33;;;;;;;27.33;13.27;;;;;;;3.53;88.88;99642.97;8522599;27;20509;-74
2022/04/27 02:04:34;;;;;;;28.42;14.02;;;;;;;3.48;89.09;99634.91;8499126;27;20054;-73
2022/04/27 02:08:35;;;;;;;30.25;14.55;;;;;;;3.41;89.33;99635.06;8501247;27;20050;-74
2022/04/27 02:12:36;;;;;;;23.55;11.48;;;;;;;3.39;89.15;99637.19;8531778;27;20043;-74
2022/04/27 02:16:38;;;;;;;19.83;11.18;;;;;;;3.36;89.38;99637.69;8532379;27;20130;-74
2022/04/27 02:20:39;;;;;;;19.60;10.32;;;;;;;3.32;89.64;99636.56;8507108;27;20043;-74
2022/04/27 02:24:39;;;;;;;18.70;10.80;;;;;;;3.27;89.78;99641.84;8507011;27;20142;-74
2022/04/27 02:28:40;;;;;;;17.13;9.73;;;;;;;3.19;89.92;99642.28;8499229;27;20039;-73
2022/04/27 02:32:42;;;;;;;17.88;9.63;;;;;;;3.11;90.36;99637.38;8528309;27;20043;-74
2022/04/27 02:36:43;;;;;;;15.57;9.77;;;;;;;3.05;90.47;99641.03;8497411;27;20047;-74
2022/04/27 02:40:44;;;;;;;14.60;9.27;;;;;;;3.00;90.49;99638.28;8507315;27;20082;-74
2022/04/27 02:44:45;;;;;;;13.85;8.18;;;;;;;2.96;90.23;99638.75;8531063;27;20047;-73
2022/04/27 02:53:05;;;;;;;15.20;9.15;;;;;;;2.88;90.56;99641.88;8526545;27;20039;-74
2022/04/27 02:57:06;;;;;;;17.85;9.68;;;;;;;2.79;90.68;99654.00;8529867;27;20046;-73
2022/04/27 03:01:07;;;;;;;18.08;9.35;;;;;;;2.84;90.46;99646.09;8528831;27;20050;-74
2022/04/27 03:05:08;;;;;;;28.30;13.40;;;;;;;2.87;90.28;99656.25;8518630;27;20059;-73
2022/04/27 03:09:09;;;;;;;25.23;13.80;;;;;;;2.86;90.17;99648.47;8503979;27;20042;-73
2022/04/27 03:13:10;;;;;;;23.00;13.13;;;;;;;2.84;90.01;99651.41;8485037;27;20446;-74
2022/04/27 03:17:11;;;;;;;19.00;10.00;;;;;;;2.81;90.24;99646.56;8496269;27;20071;-74
2022/04/27 03:21:12;;;;;;;22.77;11.68;;;;;;;2.78;90.00;99656.91;8496298;27;20074;-73
2022/04/27 03:25:14;;;;;;;21.13;12.73;;;;;;;2.74;90.35;99656.59;8510822;27;20385;-73
2022/04/27 03:29:17;;;;;;;22.38;12.73;;;;;;;2.76;90.41;99659.81;8518180;27;20035;-73
2022/04/27 03:33:18;;;;;;;23.23;12.50;;;;;;;2.75;90.70;99668.88;8527870;27;20080;-73
2022/04/27 03:37:19;;;;;;;22.83;12.95;;;;;;;2.63;90.95;99665.50;8527700;27;20061;-74
2022/04/27 03:41:22;;;;;;;25.20;12.00;;;;;;;2.55;91.33;99674.69;8507038;27;20055;-74
2022/04/27 03:45:23;;;;;;;26.77;14.07;;;;;;;2.53;91.44;99670.66;8512928;27;20468;-74
2022/04/27 03:49:24;;;;;;;63.65;26.58;;;;;;;2.54;91.26;99685.59;8463894;27;20523;-75
2022/04/27 03:53:25;;;;;;;62.30;27.83;;;;;;;2.54;91.38;99682.94;8502898;27;20117;-74
2022/04/27 03:57:29;;;;;;;48.72;18.60;;;;;;;2.54;91.10;99682.94;8508047;27;20051;-75
2022/04/27 04:01:30;;;;;;;53.10;25.05;;;;;;;2.54;91.20;99682.94;8463061;27;20046;-74
2022/04/27 04:05:31;;;;;;;62.20;26.00;;;;;;;2.55;91.15;99700.56;8460120;27;20073;-74
2022/04/27 04:09:32;;;;;;;63.95;28.83;;;;;;;2.57;91.47;99703.78;8509836;27;20137;-75
2022/04/27 04:13:33;;;;;;;61.47;26.90;;;;;;;2.62;91.16;99705.72;8521925;27;20042;-74
2022/04/27 04:17:34;;;;;;;70.95;30.95;;;;;;;2.70;90.98;99708.78;8525294;27;20046;-74
2022/04/27 04:21:35;;;;;;;68.82;30.77;;;;;;;2.73;90.50;99719.00;8527092;27;20054;-74
2022/04/27 04:29:55;;;;;;;61.40;28.45;;;;;;;2.77;90.38;99730.78;8479523;27;20031;-74
2022/04/27 04:33:56;;;;;;;56.05;28.33;;;;;;;2.83;90.72;99735.16;8506096;27;20441;-74
2022/04/27 04:37:57;;;;;;;69.53;32.83;;;;;;;2.95;90.88;99738.56;8480250;27;20431;-73
2022/04/27 04:41:58;;;;;;;67.80;32.17;;;;;;;3.12;91.07;99727.06;8525582;27;20179;-74
2022/04/27 04:45:59;;;;;;;59.80;29.05;;;;;;;3.38;90.60;99731.69;8523192;27;20043;-75
2022/04/27 04:50:00;;;;;;;69.22;30.25;;;;;;;3.60;90.23;99745.06;8524011;27;20400;-74
2022/04/27 04:54:02;;;;;;;60.47;28.90;;;;;;;3.83;89.83;99740.28;8513156;27;20051;-75
2022/04/27 04:58:02;;;;;;;49.90;27.20;;;;;;;4.11;89.40;99741.94;8492846;27;20179;-74
2022/04/27 05:02:04;;;;;;;56.45;28.38;;;;;;;4.38;89.09;99747.31;8508629;27;20050;-74
2022/04/27 05:06:08;;;;;;;58.03;29.92;;;;;;;4.68;88.94;99752.94;8451984;27;20488;-74
2022/04/27 05:10:10;;;;;;;50.90;26.75;;;;;;;4.99;88.83;99758.53;8519363;27;20046;-74
2022/04/27 05:14:10;;;;;;;51.80;27.77;;;;;;;5.25;88.51;99757.66;8521494;27;20035;-74
2022/04/27 05:18:11;;;;;;;44.35;25.27;;;;;;;5.44;88.43;99761.53;8522685;27;20034;-74
2022/04/27 05:22:12;;;;;;;54.17;27.58;;;;;;;5.66;90.49;99757.91;8501883;27;20122;-75
2022/04/27 05:26:13;;;;;;;52.15;26.20;;;;;;;5.84;92.27;99770.84;8516230;27;20046;-74
2022/04/27 05:34:34;;;;;;;40.72;21.27;;;;;;;6.15;92.02;99783.34;8503224;27;20496;-74
2022/04/27 05:38:35;;;;;;;47.10;23.25;;;;;;;6.30;91.72;99780.69;8479764;27;20055;-74
2022/04/27 05:42:36;;;;;;;52.28;25.25;;;;;;;6.52;92.03;99777.00;8505586;27;20515;-74
2022/04/27 05:46:37;;;;;;;42.25;23.08;;;;;;;6.71;92.60;99786.97;8498565;27;20043;-75
2022/04/27 05:50:38;;;;;;;45.90;22.67;;;;;;;6.87;93.33;99789.66;8431128;27;20508;-74
2022/04/27 05:54:39;;;;;;;44.70;22.13;;;;;;;6.96;93.69;99799.59;8501620;27;20100;-74
2022/04/27 05:58:40;;;;;;;38.22;21.67;;;;;;;7.09;93.74;99799.06;8516189;27;20576;-75
2022/04/27 06:02:42;;;;;;;47.00;22.38;;;;;;;7.20;94.04;99795.28;8462069;27;20055;-74
2022/04/27 06:06:43;;;;;;;41.95;22.98;;;;;;;7.42;93.63;99807.63;8515992;27;20049;-74
2022/04/27 06:10:43;;;;;;;43.55;22.35;;;;;;;7.72;92.63;99812.16;8514724;27;20054;-74
2022/04/27 06:14:44;;;;;;;43.13;21.33;;;;;;;7.96;91.84;99803.22;8499670;27;20039;-75
2022/04/27 06:19:04;;;;;;;41.58;21.83;;;;;;;8.30;91.01;99818.72;8495578;27;20049;-74
2022/04/27 06:23:09;;;;;;;44.65;22.80;;;;;;;8.58;89.81;99826.09;8459899;27;20043;-75
2022/04/27 06:27:10;;;;;;;44.88;23.17;;;;;;;8.88;88.45;99828.59;8502077;27;20047;-75
2022/04/27 06:31:11;;;;;;;38.28;20.40;;;;;;;9.11;85.44;99828.97;8443338;27;20108;-75
2022/04/27 06:35:15;;;;;;;44.35;19.83;;;;;;;9.31;83.34;99844.97;8508725;27;20502;-75
2022/04/27 06:39:18;;;;;;;33.40;18.75;;;;;;;9.47;81.76;99849.16;8498628;27;20055;-75
2022/04/27 06:43:18;;;;;;;37.80;20.15;;;;;;;9.66;81.41;99852.78;8497649;27;20485;-75
2022/04/27 06:47:19;;;;;;;35.65;18.08;;;;;;;9.82;79.88;99847.22;8528452;27;20074;-75
2022/04/27 06:51:20;;;;;;;31.75;17.60;;;;;;;9.88;78.03;99854.19;8525599;27;20039;-75
2022/04/27 06:55:21;;;;;;;37.03;18.65;;;;;;;9.95;77.45;99860.03;8499977;27;20043;-75
2022/04/27 06:59:22;;;;;;;34.08;18.35;;;;;;;10.01;77.04;99853.50;8518801;27;20058;-75
2022/04/27 07:03:23;;;;;;;30.38;16.20;;;;;;;10.16;75.93;99861.44;8521909;27;20090;-75
2022/04/27 07:07:23;;;;;;;28.33;15.73;;;;;;;10.30;74.94;99870.47;8503094;27;20162;-75
2022/04/27 07:11:24;;;;;;;30.73;16.30;;;;;;;10.42;73.68;99865.44;8519348;27;20045;-75
2022/04/27 07:15:25;;;;;;;30.98;15.70;;;;;;;10.62;73.15;99863.59;8510979;27;20082;-75
2022/04/27 07:19:26;;;;;;;28.05;13.50;;;;;;;10.78;70.99;99873.13;8479097;27;20054;-75
2022/04/27 07:23:27;;;;;;;20.95;12.40;;;;;;;10.87;69.81;99876.75;8512670;27;20492;-75
2022/04/27 07:27:31;;;;;;;24.60;10.73;;;;;;;11.19;67.30;99868.72;8529955;27;20077;-75
2022/04/27 07:31:32;;;;;;;19.67;10.07;;;;;;;11.39;65.91;99873.81;8515442;27;20123;-75
2022/04/27 07:35:33;;;;;;;15.50;8.27;;;;;;;11.71;65.26;99891.13;8493221;27;20432;-75
2022/04/27 07:39:34;;;;;;;12.80;7.45;;;;;;;11.92;61.87;99889.69;8501180;27;20079;-75
2022/04/27 07:43:35;;;;;;;16.52;8.75;;;;;;;11.99;62.14;99895.53;8495551;27;20476;-76
2022/04/27 07:47:44;;;;;;;15.43;8.18;;;;;;;12.15;61.11;99896.88;8513485;27;20078;-75
2022/04/27 07:51:46;;;;;;;14.57;7.53;;;;;;;12.38;59.39;99886.13;8477048;27;20631;-76
2022/04/27 07:55:48;;;;;;;16.73;8.45;;;;;;;12.42;58.89;99895.28;8475662;27;20054;-76
2022/04/27 07:59:49;;;;;;;17.30;9.30;;;;;;;12.45;58.13;99900.06;8489412;27;20047;-76
2022/04/27 08:03:50;;;;;;;17.58;8.65;;;;;;;12.63;58.89;99896.47;8479308;27;20134;-75
2022/04/27 08:07:51;;;;;;;15.68;8.02;;;;;;;12.77;57.78;99891.81;8530306;27;20053;-75
2022/04/27 08:11:54;;;;;;;21.23;9.40;;;;;;;12.83;59.01;99901.44;8505400;27;20489;-75
2022/04/27 08:15:55;;;;;;;19.00;9.70;;;;;;;12.98;59.38;99903.81;8495306;27;20051;-74
2022/04/27 08:21:13;;;;;;;19.48;8.88;;;;;;;13.32;57.48;99905.25;8494850;27;20066;-76
2022/04/27 08:24:19;;;;;;;17.33;8.23;;;;;;;13.31;58.12;99900.94;8496444;27;20039;-75
2022/04/27 08:28:19;;;;;;;16.95;8.25;;;;;;;13.30;57.82;99904.75;8516412;27;20122;-74
2022/04/27 08:32:20;;;;;;;12.90;7.53;;;;;;;13.31;57.45;99906.38;8519501;27;20065;-75
2022/04/27 08:36:21;;;;;;;14.48;7.82;;;;;;;13.46;57.61;99903.28;8529074;27;20039;-75
2022/04/27 08:40:24;;;;;;;15.90;8.00;;;;;;;13.50;55.72;99915.13;8511588;27;20050;-75
2022/04/27 08:44:25;;;;;;;14.70;7.70;;;;;;;13.53;57.65;99903.66;8516431;27;20058;-75
2022/04/27 08:48:27;;;;;;;12.63;7.20;;;;;;;13.47;53.53;99915.75;8528387;27;20043;-75
2022/04/27 08:52:28;;;;;;;15.38;7.38;;;;;;;13.56;54.30;99908.47;8465092;27;20408;-75
2022/04/27 08:56:30;;;;;;;17.08;8.80;;;;;;;13.92;54.00;99911.88;8505989;27;20058;-75
2022/04/27 09:00:30;;;;;;;19.20;8.23;;;;;;;14.30;54.27;99911.44;8535642;27;20053;-74
2022/04/27 09:04:31;;;;;;;13.98;6.57;;;;;;;14.70;52.55;99910.31;8535244;27;20511;-75
2022/04/27 09:08:44;;;;;;;11.82;5.28;;;;;;;14.62;51.88;99930.13;8535329;27;20067;-75
2022/04/27 09:12:53;;;;;;;10.43;4.47;;;;;;;14.30;49.93;99933.16;8535161;27;20049;-75
2022/04/27 09:21:13;;;;;;;8.00;4.43;;;;;;;14.06;49.17;99927.31;8535066;27;20051;-75
2022/04/27 09:25:14;;;;;;;9.38;5.15;;;;;;;14.25;47.64;99930.59;8534434;27;20480;-75
2022/04/27 09:29:24;;;;;;;12.70;4.82;;;;;;;14.27;49.03;99928.38;8508262;27;20506;-75
2022/04/27 09:33:35;;;;;;;10.75;5.03;;;;;;;14.33;48.33;99927.09;8499910;27;20043;-75
2022/04/27 09:37:43;;;;;;;6.45;4.20;;;;;;;14.26;48.25;99932.19;8500388;27;20043;-75
2022/04/27 09:41:45;;;;;;;9.05;3.85;;;;;;;14.36;48.85;99926.50;8499593;27;20051;-75
2022/04/27 09:45:46;;;;;;;9.02;3.70;;;;;;;14.43;46.93;99924.16;8513501;27;20062;-74
2022/04/27 09:49:54;;;;;;;8.85;3.63;;;;;;;14.52;45.79;99924.97;8473052;27;20134;-74
2022/04/27 09:53:56;;;;;;;6.05;3.75;;;;;;;14.68;45.85;99918.00;8523858;27;20050;-75
2022/04/27 09:57:57;;;;;;;8.80;4.28;;;;;;;14.89;46.41;99918.22;8473159;27;20082;-75
2022/04/27 10:02:08;;;;;;;7.22;3.42;;;;;;;15.02;45.31;99917.25;8485420;27;20558;-74
2022/04/27 10:06:09;;;;;;;7.07;3.72;;;;;;;14.94;41.92;99925.41;8525496;27;20560;-75
2022/04/27 10:10:10;;;;;;;5.30;3.40;;;;;;;14.83;43.97;99929.53;8509414;27;20044;-75
2022/04/27 10:14:11;;;;;;;10.63;3.80;;;;;;;14.56;43.15;99925.16;8515484;27;20026;-75
2022/04/27 10:18:17;;;;;;;7.70;3.60;;;;;;;14.35;45.29;99924.88;8473698;27;20055;-75
2022/04/27 10:22:31;;;;;;;6.25;3.58;;;;;;;14.06;45.80;99930.84;8522739;27;20496;-74
2022/04/27 10:26:32;;;;;;;6.78;4.30;;;;;;;13.85;45.98;99930.53;8519742;27;20062;-74
2022/04/27 10:30:43;;;;;;;8.43;4.32;;;;;;;13.71;46.93;99931.72;8499595;27;20338;-74
2022/04/27 10:34:43;;;;;;;11.27;6.13;;;;;;;13.63;48.14;99949.56;8519598;27;20053;-74
2022/04/27 10:39:14;;;;;;;17.45;6.20;;;;;;;13.61;49.49;99943.63;8496296;27;20163;-74
2022/04/27 10:43:27;;;;;;;13.95;7.32;;;;;;;13.55;49.74;99939.44;8488190;27;20427;-75
2022/04/27 10:47:34;;;;;;;17.23;7.78;;;;;;;13.64;49.22;99953.84;8526460;27;20068;-73
2022/04/27 10:52:08;;;;;;;12.63;6.35;;;;;;;13.72;49.89;99945.00;8527323;27;20102;-75
2022/04/27 10:56:23;;;;;;;19.70;7.32;;;;;;;13.93;49.93;99945.28;8357153;28;20053;-73
2022/04/27 11:00:24;;;;;;;13.40;6.38;;;;;;;14.18;50.55;99941.09;8355545;28;20526;-75
2022/04/27 11:04:33;;;;;;;13.05;6.68;;;;;;;14.35;48.37;99952.06;8356676;28;20076;-74
2022/04/27 11:08:57;;;;;;;15.38;6.47;;;;;;;14.57;48.04;99952.03;8356413;28;20164;-74
2022/04/27 11:12:58;;;;;;;15.73;6.63;;;;;;;14.83;48.24;99948.56;8356467;28;20051;-75
2022/04/27 11:16:59;;;;;;;11.07;6.00;;;;;;;15.14;46.95;99949.28;8356349;28;20044;-74
2022/04/27 11:21:02;;;;;;;7.60;5.35;;;;;;;15.38;46.45;99946.91;8355081;28;20186;-73
2022/04/27 11:25:08;;;;;;;11.48;5.65;;;;;;;15.51;44.78;99951.41;8339422;28;20045;-74
2022/04/27 11:29:10;;;;;;;10.98;6.53;;;;;;;15.67;44.08;99948.19;8307864;27;20068;-75
2022/04/27 11:33:11;;;;;;;8.63;5.40;;;;;;;15.98;43.75;99937.88;8507892;27;20043;-74
2022/04/27 11:37:17;;;;;;;15.32;5.63;;;;;;;16.26;41.99;99938.31;8525681;27;20043;-74
2022/04/27 11:41:20;;;;;;;7.97;4.32;;;;;;;16.68;41.20;99944.72;8488747;27;20073;-74
2022/04/27 11:45:22;;;;;;;8.27;4.20;;;;;;;16.87;39.98;99936.91;8527818;27;20118;-75
2022/04/27 11:49:25;;;;;;;6.53;3.88;;;;;;;16.77;38.91;99945.47;8521669;27;20035;-74
2022/04/27 11:53:26;;;;;;;9.02;4.03;;;;;;;16.68;37.52;99947.47;8501341;27;20039;-73
2022/04/27 11:57:27;;;;;;;7.47;3.67;;;;;;;16.60;38.16;99942.84;8500234;27;20046;-75
2022/04/27 12:01:27;;;;;;;8.60;4.53;;;;;;;16.56;37.37;99947.31;8457403;27;20072;-75
2022/04/27 12:05:36;;;;;;;8.82;4.32;;;;;;;16.37;37.66;99951.25;8500274;27;20039;-74
2022/04/27 12:09:37;;;;;;;9.23;5.00;;;;;;;16.27;38.20;99934.44;8515898;27;20126;-75
2022/04/27 12:13:38;;;;;;;8.05;4.32;;;;;;;16.16;39.19;99944.91;8508147;27;20050;-75
2022/04/27 12:17:40;;;;;;;7.93;4.65;;;;;;;16.10;39.42;99946.19;8510033;27;20493;-76
2022/04/27 12:21:42;;;;;;;6.80;3.92;;;;;;;15.97;39.20;99941.72;8514639;27;20062;-76
2022/04/27 12:25:52;;;;;;;8.00;4.72;;;;;;;15.92;39.66;99947.34;8512401;27;20047;-77
2022/04/27 12:30:07;;;;;;;8.13;5.47;;;;;;;15.67;39.70;99948.19;8515454;27;20095;-77
2022/04/27 12:37:29;;;;;;;11.85;5.22;;;;;;;15.58;40.19;99946.28;8518964;27;20039;-75
2022/04/27 12:38:31;;;;;;;7.47;4.43;;;;;;;15.72;40.97;99950.75;8493792;27;20476;-75
2022/04/27 12:42:37;;;;;;;10.63;5.13;;;;;;;15.75;40.71;99933.78;8516115;27;20579;-75
2022/04/27 12:46:55;;;;;;;8.98;5.00;;;;;;;15.81;40.70;99948.84;8511392;27;20046;-75
2022/04/27 12:50:57;;;;;;;12.13;5.55;;;;;;;15.79;40.52;99934.75;8498636;27;20095;-75
2022/04/27 12:55:01;;;;;;;9.18;5.40;;;;;;;15.79;40.59;99945.63;8518753;27;20046;-76
2022/04/27 12:59:12;;;;;;;9.73;6.10;;;;;;;15.74;40.25;99938.44;8515411;27;20051;-75
2022/04/27 13:03:14;;;;;;;8.95;5.10;;;;;;;15.72;40.01;99939.84;8488982;27;20176;-75
2022/04/27 13:07:15;;;;;;;10.32;5.20;;;;;;;15.68;40.27;99938.91;8511212;27;20071;-75
2022/04/27 13:15:35;;;;;;;9.05;4.85;;;;;;;15.38;41.17;99941.47;8515096;27;20035;-75
2022/04/27 13:19:36;;;;;;;12.95;5.82;;;;;;;15.31;41.69;99946.56;8519448;27;20044;-75
2022/04/27 13:23:39;;;;;;;6.90;4.63;;;;;;;15.44;42.63;99942.88;8518698;27;20039;-74
2022/04/27 13:27:41;;;;;;;14.48;5.07;;;;;;;15.51;40.75;99945.97;8490226;27;20512;-75
2022/04/27 13:31:42;;;;;;;9.48;4.82;;;;;;;15.56;40.80;99943.09;8516506;27;20488;-75
2022/04/27 13:35:43;;;;;;;9.85;4.45;;;;;;;15.87;41.38;99942.06;8509846;27;20061;-75
2022/04/27 13:39:44;;;;;;;10.05;6.07;;;;;;;16.06;39.62;99931.63;8514814;27;20078;-75
2022/04/27 13:43:45;;;;;;;8.25;5.05;;;;;;;16.45;40.25;99936.78;8514522;27;20389;-75
2022/04/27 13:47:46;;;;;;;9.25;4.80;;;;;;;17.67;38.52;99934.88;8526878;27;20035;-75
2022/04/27 13:51:49;;;;;;;9.32;4.68;;;;;;;18.23;36.21;99921.63;8521328;27;20453;-75
2022/04/27 13:55:50;;;;;;;9.10;5.30;;;;;;;18.13;36.17;99926.41;8498883;27;20092;-76
2022/04/27 13:59:51;;;;;;;8.75;4.95;;;;;;;17.87;34.44;99920.38;8512459;27;20047;-75
2022/04/27 14:03:52;;;;;;;10.77;5.18;;;;;;;17.76;35.26;99924.69;8521567;27;20149;-75
2022/04/27 14:07:54;;;;;;;8.57;4.72;;;;;;;18.36;35.38;99920.47;8490765;27;20046;-75
2022/04/27 14:20:34;;;;;;;7.18;4.88;;;;;;;19.12;34.37;99928.00;8478307;27;20139;-75
2022/04/27 14:24:35;;;;;;;7.30;5.00;;;;;;;18.52;34.56;99924.16;8502010;27;20407;-76
2022/04/27 14:28:36;;;;;;;9.65;4.97;;;;;;;17.86;35.22;99935.22;8487638;27;20047;-75
2022/04/27 14:32:37;;;;;;;7.07;4.22;;;;;;;17.37;35.49;99933.38;8531930;27;20042;-75
2022/04/27 14:36:38;;;;;;;7.55;5.10;;;;;;;17.35;35.04;99924.69;8502395;27;20062;-75
2022/04/27 14:40:39;;;;;;;12.25;5.35;;;;;;;17.85;33.98;99928.13;8509467;27;20548;-75
2022/04/27 14:44:40;;;;;;;8.55;4.80;;;;;;;18.35;33.79;99919.69;8475990;27;20062;-75
2022/04/27 14:48:42;;;;;;;17.08;6.32;;;;;;;18.43;34.43;99915.25;8507590;27;20119;-77
2022/04/27 14:52:43;;;;;;;11.82;6.80;;;;;;;18.21;35.25;99918.41;8512207;27;20053;-75
2022/04/27 14:56:44;;;;;;;9.63;4.95;;;;;;;17.83;35.31;99924.94;8510875;27;20050;-75
2022/04/27 15:00:46;;;;;;;8.25;5.13;;;;;;;17.68;34.89;99922.84;8509636;27;20412;-75
2022/04/27 15:04:47;;;;;;;14.23;5.05;;;;;;;17.85;35.38;99921.88;8470017;27;20042;-76
2022/04/27 15:08:48;;;;;;;14.70;7.70;;;;;;;18.49;34.86;99919.38;8509754;27;20046;-75
2022/04/27 15:12:49;;;;;;;6.72;4.90;;;;;;;19.59;33.74;99918.06;8529491;27;20053;-76
2022/04/27 15:16:50;;;;;;;10.27;5.40;;;;;;;21.28;31.29;99914.44;8511142;27;20043;-75
2022/04/27 15:25:13;;;;;;;10.50;5.07;;;;;;;20.97;31.38;99931.78;8523194;27;20046;-76
2022/04/27 15:29:15;;;;;;;11.52;5.47;;;;;;;19.30;33.08;99932.06;8495603;27;20404;-76
2022/04/27 15:33:16;;;;;;;11.43;6.28;;;;;;;18.29;34.26;99931.22;8523393;27;20394;-75
2022/04/27 15:37:19;;;;;;;14.73;6.95;;;;;;;17.48;35.68;99940.03;8492632;27;20507;-76
2022/04/27 15:41:20;;;;;;;7.45;4.40;;;;;;;16.95;36.96;99938.81;8523376;27;20095;-76
2022/04/27 15:45:21;;;;;;;8.88;4.53;;;;;;;16.78;37.41;99933.44;8485047;27;20045;-75
2022/04/27 15:49:22;;;;;;;9.13;5.10;;;;;;;16.58;38.87;99950.53;8516513;27;20074;-76
2022/04/27 15:53:23;;;;;;;6.32;3.47;;;;;;;16.56;39.12;99936.41;8523101;27;20556;-76
2022/04/27 15:57:24;;;;;;;14.27;6.57;;;;;;;16.55;39.66;99940.28;8522736;27;20078;-75
2022/04/27 16:01:25;;;;;;;14.90;5.20;;;;;;;16.28;39.62;99947.75;8526394;27;20132;-76
2022/04/27 16:05:26;;;;;;;7.53;4.28;;;;;;;15.95;39.94;99938.56;8521771;27;20042;-76
2022/04/27 16:09:27;;;;;;;7.95;4.97;;;;;;;15.82;40.28;99944.97;8525317;27;20039;-76
2022/04/27 16:13:28;;;;;;;33.75;17.92;;;;;;;15.79;40.60;99951.06;8528125;27;20453;-75
2022/04/27 16:17:29;;;;;;;46.63;22.38;;;;;;;15.86;41.45;99948.66;8522090;27;20096;-75
2022/04/27 16:25:49;;;;;;;27.85;13.35;;;;;;;15.91;42.77;99956.69;8513914;27;20070;-75
2022/04/27 16:29:50;;;;;;;18.83;9.73;;;;;;;15.79;42.83;99945.63;8523701;27;20039;-75
2022/04/27 16:33:52;;;;;;;14.15;6.43;;;;;;;15.57;42.73;99955.56;8523396;27;20051;-75
2022/04/27 16:37:53;;;;;;;12.63;7.97;;;;;;;15.42;43.38;99953.31;8499940;27;20047;-75
2022/04/27 16:41:54;;;;;;;22.02;9.52;;;;;;;15.26;43.98;99954.91;8506174;27;20062;-75
2022/04/27 16:45:55;;;;;;;16.27;9.35;;;;;;;15.08;44.87;99959.50;8478035;27;20039;-76
2022/04/27 16:49:56;;;;;;;28.70;11.80;;;;;;;14.97;46.51;99960.13;8518613;27;20049;-76
2022/04/27 16:53:57;;;;;;;21.15;12.52;;;;;;;14.82;47.64;99963.28;8486225;27;20039;-75
2022/04/27 16:57:58;;;;;;;26.15;12.48;;;;;;;14.66;48.86;99966.44;8519308;27;20047;-75
2022/04/27 17:01:59;;;;;;;15.55;6.32;;;;;;;14.50;49.94;99970.69;8506315;27;20058;-75
2022/04/27 17:06:05;;;;;;;13.25;6.38;;;;;;;14.32;50.04;99969.81;8514581;27;20050;-75
2022/04/27 17:10:07;;;;;;;11.02;5.88;;;;;;;14.21;50.93;99978.53;8513765;27;20055;-75
2022/04/27 17:14:10;;;;;;;13.05;5.07;;;;;;;14.10;52.15;99977.19;8512450;27;20332;-74
2022/04/27 17:18:11;;;;;;;11.10;4.90;;;;;;;13.95;53.44;99986.53;8469986;27;20054;-75
2022/04/27 17:22:12;;;;;;;8.95;5.20;;;;;;;13.84;54.32;99990.59;8514467;27;20045;-75
2022/04/27 17:30:33;;;;;;;10.30;5.78;;;;;;;13.53;56.83;100004.06;8520642;27;20115;-75
2022/04/27 17:34:33;;;;;;;12.30;6.07;;;;;;;13.40;57.88;99996.75;8482687;27;20254;-75
2022/04/27 17:38:35;;;;;;;11.10;6.18;;;;;;;13.25;58.82;100003.34;8532042;27;20050;-74
2022/04/27 17:42:36;;;;;;;14.27;6.70;;;;;;;13.11;59.21;100006.06;8519447;27;20411;-74
2022/04/27 17:46:37;;;;;;;14.57;8.07;;;;;;;13.03;59.44;100009.47;8511301;27;20042;-73
2022/04/27 17:50:38;;;;;;;15.80;8.20;;;;;;;12.90;60.03;100002.13;8521385;27;20070;-74
2022/04/27 17:54:40;;;;;;;17.75;8.18;;;;;;;12.78;60.88;100011.88;8470207;27;20053;-74
2022/04/27 17:58:40;;;;;;;24.90;10.93;;;;;;;12.64;61.30;100006.44;8491699;27;20059;-74
2022/04/27 18:02:42;;;;;;;23.60;10.60;;;;;;;12.52;61.96;100019.69;8520597;27;20072;-74
2022/04/27 18:06:43;;;;;;;23.50;10.68;;;;;;;12.42;62.53;100030.72;8531977;27;20054;-74
2022/04/27 18:10:47;;;;;;;17.15;8.75;;;;;;;12.31;63.01;100023.88;8526039;27;20042;-74
2022/04/27 18:14:49;;;;;;;15.27;7.90;;;;;;;12.18;63.38;100031.66;8520527;27;20051;-74
2022/04/27 18:18:50;;;;;;;22.83;10.60;;;;;;;12.08;63.73;100039.94;8507337;27;20043;-73
2022/04/27 18:22:51;;;;;;;17.50;8.75;;;;;;;11.94;64.49;100041.81;8491594;27;20054;-74
2022/04/27 18:26:52;;;;;;;17.13;8.63;;;;;;;11.73;65.27;100051.34;8523816;27;20038;-74
2022/04/27 18:30:58;;;;;;;15.70;8.30;;;;;;;11.65;65.76;100060.06;8522063;27;20054;-75
2022/04/27 18:34:59;;;;;;;22.20;9.23;;;;;;;11.59;66.05;100062.03;8529848;27;20146;-75
2022/04/27 18:39:02;;;;;;;19.55;8.13;;;;;;;11.47;66.57;100068.97;8532425;27;20392;-74
2022/04/27 18:43:04;;;;;;;13.32;7.32;;;;;;;11.38;66.91;100066.09;8521432;27;20258;-74
2022/04/27 18:51:25;;;;;;;28.10;13.73;;;;;;;11.21;67.46;100082.81;8517016;27;20488;-74
2022/04/27 18:55:30;;;;;;;23.58;11.88;;;;;;;11.11;68.06;100088.34;8515038;27;20043;-74
2022/04/27 18:59:36;;;;;;;25.55;14.82;;;;;;;11.02;68.01;100090.06;8490875;27;20049;-74
2022/04/27 19:03:46;;;;;;;21.35;12.38;;;;;;;10.92;68.36;100095.59;8440529;27;20054;-75
2022/04/27 19:07:47;;;;;;;22.80;13.75;;;;;;;10.79;68.66;100091.66;8500437;27;20047;-74
2022/04/27 19:11:50;;;;;;;34.50;17.88;;;;;;;10.71;68.96;100089.59;8520731;27;20050;-74
2022/04/27 19:15:52;;;;;;;30.98;17.25;;;;;;;10.64;69.10;100089.13;8486314;27;20043;-74
2022/04/27 19:19:53;;;;;;;33.83;19.13;;;;;;;10.61;69.14;100088.88;8487667;27;20053;-74
2022/04/27 19:23:56;;;;;;;25.15;15.05;;;;;;;10.55;68.93;100097.03;8522000;27;20055;-73
2022/04/27 19:27:58;;;;;;;32.38;16.63;;;;;;;10.51;69.33;100090.59;8520750;27;20083;-74
2022/04/27 19:32:01;;;;;;;21.88;12.60;;;;;;;10.47;69.26;100094.13;8497432;27;20415;-74
2022/04/27 19:36:03;;;;;;;22.77;12.38;;;;;;;10.42;69.40;100086.88;8472606;27;20492;-73
2022/04/27 19:40:05;;;;;;;24.88;12.30;;;;;;;10.42;69.29;100092.28;8501568;27;20063;-74